Partenaires institutionnels


Sponsors

060/34.00.00
www.octaplus.be
info.mariembourg@octaplus.be
COURSE AUX FLAMBEAUX
20:01:55 264 classés 5,800 km
POS DOS SEXE NOM CLUB TEMPS REEL VIT MOY CAT PL. PTS
1 1155 MORTIER NICOLAS ESM 00:20:04 00:20:04 17,342 03:28 SCO H 1 1000
2 690 MAHIA SEBASTIEN RUN ATTITUDE 00:20:49 00:20:49 16,717 03:35 TC H 1 964
3 1033 PONCELET KYLIAN ACCO 00:20:49 00:20:48 16,731 03:35 TC H 2 965
4 1077 ARNO SIMON ESM 00:20:52 00:20:51 16,691 03:36 SCO H 2 962
5 682 BASTIN THIBAUT JACO 00:21:09 00:21:09 16,454 03:39 xH 1 949
6 1008 DUBUC JUSTIN A.R. JEAN REY SECONDAIRE 00:21:11 00:21:11 16,428 03:39 CAD H 1 947
7 1061 NUYTTEN MAXIME ACCO 00:21:26 00:21:26 16,236 03:42 CAD H 2 936
8 1124 EVRATS CÉLESTIN RCABW PHILIPPEVILLE 00:22:09 00:22:08 15,723 03:49 CAD H 3 907
9 1154 MOHDHI ALEXANDRE TEAM ISKENTIKI 00:22:10 00:22:06 15,747 03:49 SCO H 3 908
10 1043 LECHAT JEAN JACO 00:22:48 00:22:47 15,274 03:56 CAD H 4 881
11 679 DECOUX ARNAUD 00:23:05 00:23:05 15,076 03:59 TC H 3 869
12 649 NOIRET ROWAN ARJR 00:23:12 00:23:11 15,011 04:00 SCO H 4 866
13 1024 HASBANI NAIME JACO 00:23:21 00:23:20 14,914 04:01 SCO H 5 860
14 202 JACQUES JERRY JTRR 00:23:24 00:23:24 14,872 04:02 TC H 4 858
15 641 FORTUNATO ITALO ZATAC 00:23:31 00:23:22 14,893 04:02 TC H 5 859
16 1167 PIERSON KILLIAN BELFIUS 00:23:41 00:23:40 14,704 04:05 CAD H 5 848
17 1144 F LENGELEZ JADE CABW 00:23:45 00:23:41 14,694 04:05 xF 1 847
18 96 GUILLAUME SEBASTIEN SHARKS 00:24:08 00:24:05 14,450 04:09 TC H 6 833
19 1070 GUILLAUME SEBASTIEN SHARKS 00:24:08 00:24:05 14,450 04:09 TC H 7 833
20 675 ADANT FRANCOIS 00:24:25 00:24:21 14,292 04:12 SCO H 6 824
21 1087 BONA EBUBEKIR A.R. JEAN REY SECONDAIRE 00:24:33 00:24:20 14,301 04:12 CAD H 6 825
22 605 GUIOLAND GUILLAUME 00:24:35 00:24:33 14,175 04:14 SCO H 7 817
23 669 VAN CAELENBERG BRUNO A TEAM 00:24:35 00:24:34 14,166 04:14 TC H 8 817
24 607 F POCHET LERE 00:24:37 00:24:35 14,156 04:14 SCO F 1 816
25 711 SOTTIAUX QUENTIN 00:24:50 00:24:45 14,061 04:16 SCO H 8 811
26 719 BALLEZ GUY 00:24:53 00:24:46 14,051 04:16 TC H 9 810
27 1063 F ROGGE JULIE JACO 00:25:12 00:25:07 13,855 04:20 CAD F 1 799
28 1128 FILIEUX FRANÇOIS KIN ET SPORT 00:25:12 00:25:06 13,865 04:20 TC H 10 799
29 1113 DEWEVER JESSY ACCO 00:25:17 00:25:16 13,773 04:21 CAD H 7 794
30 1099 DAVENNE DAMIEN A.R. VAUBAN CHARLEROI 00:25:33 00:25:30 13,647 04:24 CAD H 8 787
31 1181 VACHAUDEZ JÉROME JACO 00:25:35 00:25:32 13,629 04:24 TC H 11 786
32 1090 F CATY TIFFANY A.R. JEAN REY SECONDAIRE 00:25:44 00:25:43 13,532 04:26 CAD F 2 780
33 1079 BAIVIER VALENTIN JACO 00:25:51 00:25:49 13,480 04:27 xH 2 777
34 1062 ROCHETTE ARNAUD 00:26:02 00:25:56 13,419 04:28 TC H 12 774
35 1074 F NICOLAS CATHERINE 00:26:02 00:25:57 13,410 04:28 TC F 1 773
36 1129 FLABAT DYLAN A.R. JEAN REY SECONDAIRE 00:26:07 00:26:05 13,342 04:30 CAD H 9 769
37 701 CHARLIER MAXENCE 00:26:11 00:25:55 13,428 04:28 SCO H 9 774
38 1041 F LECHAT ELISE JACO 00:26:15 00:26:13 13,274 04:31 SCO F 2 765
39 1098 DAMBROISE CHRISTOPHE 00:26:24 00:26:20 13,215 04:32 TC H 13 762
40 1045 DUCOURTIOUX TEDDY ALBATROS 00:26:32 00:26:26 13,165 04:33 TC H 14 759
41 1172 SCHMETZ YANNICK A.R. JEAN REY SECONDAIRE 00:26:47 00:26:46 13,001 04:37 TC H 15 750
42 1186 F VOOGD LISA SHARKS-JACO 00:26:58 00:26:50 12,969 04:38 CAD F 3 748
43 1001 F BARBENÇON ANGÉLIQUE TRAILERS DES FAGNES 00:27:04 00:26:59 12,897 04:39 TC F 2 744
44 699 BECUE VICTOR MOHA 00:27:06 00:27:05 12,849 04:40 xH 3 741
45 105 BELLENGER BRUNO JTRR 00:27:07 00:26:58 12,905 04:39 TC H 16 744
46 1177 STEINER MICKAËL A.R. JEAN REY SECONDAIRE 00:27:12 00:26:59 12,897 04:39 CAD H 10 744
47 692 NICOLAS AMAURY 00:27:12 00:27:12 12,794 04:41 TC H 17 738
48 1122 F ENSAY MERY CABW PHILIPPEVILLE 00:27:19 00:27:17 12,755 04:42 SCO F 3 735
49 678 MOISTRIAUX LOGAN 00:27:25 00:27:15 12,771 04:42 TC H 18 736
50 636 DEBRIS LOUIS 00:27:27 00:27:18 12,747 04:42 TC H 19 735
51 637 HODX CHRISTOPHE 00:27:28 00:27:28 12,670 04:44 TC H 20 731
52 1114 DIBIASE MATÉO 00:27:35 00:27:32 12,639 04:45 CAD H 11 729
53 1168 PIETERS KILIAN TEAM ISKENTIKI 00:27:39 00:27:35 12,616 04:45 SCO H 10 727
54 1150 MARSEN ALDO 00:27:43 00:27:40 12,578 04:46 TC H 21 725
55 691 DAPARE YOHAN 00:27:44 00:27:26 12,685 04:44 TC H 22 731
56 706 ALEMA DESBELLE PESCHE 00:27:46 00:27:29 12,662 04:44 CAD H 12 730
57 705 NACERI DODIR FOOTBALL CHIMAY 00:27:46 00:27:30 12,655 04:44 CAD H 13 730
58 697 MAUDOUX ARNAUD 00:27:53 00:27:53 12,481 04:48 TC H 23 720
59 1147 MANISE MATTHIEU TRAILERS DES FAGNES 00:27:57 00:27:49 12,510 04:48 TC H 24 721
60 647 MALVOISIN LIONEL 00:27:59 00:27:55 12,466 04:49 TC H 25 719
61 642 PIRET ALAIN ZATAC 00:28:04 00:27:54 12,473 04:49 TC H 26 719
62 1187 VOOGD THÉO SHARKS-JACO 00:28:05 00:27:52 12,488 04:48 xH 4 720
63 1097 CULOT CEDRIC MENUISERIE RICHE 00:28:10 00:28:09 12,362 04:51 TC H 27 713
64 670 F PIGNON CLAIRE 00:28:12 00:28:09 12,362 04:51 TC F 3 713
65 1029 F CAUDRON LINDSEY JTRR 00:28:17 00:28:11 12,348 04:52 TC F 4 712
66 634 BAUDET PHILIPPE 00:28:20 00:28:15 12,319 04:52 TC H 28 710
67 1112 F DETRE ABELINE JCPMF CHIMAY 00:28:42 00:28:35 12,175 04:56 SCO F 4 702
68 1125 FAILLON THIMOTHÉE A.R. JEAN REY SECONDAIRE 00:28:46 00:28:29 12,218 04:55 CAD H 14 705
69 657 LEJEUNE NICOLAS 00:28:47 00:28:46 12,097 04:58 TC H 29 698
70 710 SOTTIAUX TRISTAN 00:28:52 00:28:47 12,090 04:58 xH 5 697
71 1162 NICOLAS JORDAN 00:28:55 00:28:49 12,076 04:58 TC H 30 696
72 703 MUSTIN SEAN 00:29:07 00:29:07 11,952 05:01 SCO H 11 689
73 1050 F COLLART MARCELLE 00:29:12 00:29:11 11,925 05:02 TC F 5 688
74 1053 VERSCHELDEN MAXENCE ALBATROS 00:29:21 00:29:20 11,864 05:03 TC H 31 684
75 659 F BUTTIGNOL LORENA 00:29:32 00:29:30 11,797 05:05 TC F 6 680
76 1088 F BOURTEMBOURG ELODIE 00:29:34 00:29:23 11,843 05:04 TC F 7 683
77 1082 F BECUE MARGAUX RCABW 00:29:40 00:29:38 11,744 05:07 CAD F 4 677
78 714 CORNIL BENOIT 00:29:46 00:29:43 11,711 05:07 xH 6 675
79 662 DUPUIS LOUIS JACO 00:29:49 00:29:40 11,730 05:07 CAD H 15 676
80 1183 VAN LOO MICKAËL 00:29:51 00:29:45 11,697 05:08 TC H 32 675
81 1028 F BROUSMICHE SYLVIE TRAILERS DES FAGNES 00:29:53 00:29:49 11,671 05:08 TC F 8 673
82 1038 F MARION JULIETTE ACCO 00:29:58 00:29:45 11,697 05:08 CAD F 5 675
83 652 PAGE BENJAMIN 00:30:25 00:30:25 11,441 05:15 TC H 33 660
84 1136 F HENRY ROMANE 00:30:26 00:30:20 11,473 05:14 TC F 9 662
85 653 F PAGE PAULINE 00:30:30 00:30:23 11,454 05:14 xF 2 660
86 1105 F DELHAYE EVA 00:30:34 00:30:32 11,397 05:16 CAD F 6 657
87 663 F GILLAIN BENEDICTE 00:30:41 00:30:28 11,422 05:15 TC F 10 659
88 1017 F MASSART MARIE TRAILERS DES FAGNES 00:30:47 00:30:42 11,335 05:18 TC F 11 654
89 1042 BEAUPREAU THOMAS ALBATROS 00:30:59 00:30:43 11,329 05:18 TC H 34 653
90 1004 F COLOT HELENE 00:31:00 00:30:55 11,256 05:20 TC F 12 649
91 687 F POLLET MARILOU CABW 00:31:04 00:31:03 11,208 05:21 SCO F 5 646
92 685 F IACIOFORRO EVA CABW 00:31:04 00:31:04 11,202 05:21 CAD F 7 646
93 1040 BAUDAUX FRANCIS JCPMF COUVIN 00:31:13 00:31:00 11,226 05:21 TC H 35 647
94 1149 MARQUIS DONOVAN A.R. JEAN REY SECONDAIRE 00:31:25 00:31:12 11,154 05:23 CAD H 16 643
95 1148 MAQUART FLAVIEN A.R. JEAN REY SECONDAIRE 00:31:30 00:31:13 11,148 05:23 CAD H 17 643
96 1169 QUIMPER THOMAS 00:31:37 00:31:19 11,112 05:24 xH 7 641
97 1159 NICOLAS FRÉDÉRICK 00:31:43 00:31:34 11,024 05:27 TC H 36 636
98 1121 F DUPUIS ANNIE KETTLEFIT 00:31:55 00:31:45 10,961 05:28 TC F 13 632
99 1076 ARDENGO DAMIEN 00:32:00 00:31:42 10,978 05:28 TC H 37 633
100 1163 NOEL QUENTIN A.R. JEAN REY SECONDAIRE 00:32:09 00:31:50 10,932 05:29 SCO H 12 630
101 695 F HENUZET AURORE 00:32:10 00:32:04 10,852 05:32 TC F 14 626
102 694 F LOSSEAUSE JUSTINE 00:32:12 00:32:06 10,841 05:32 TC F 15 625
103 619 FONDER JEAN-FRANCOIS 00:32:16 00:31:57 10,892 05:31 TC H 38 628
104 709 F GARDIN CLEMENCE 00:32:18 00:32:09 10,824 05:33 CAD F 8 624
105 1170 ROBIN MICHEL KINESPORT 00:32:22 00:32:11 10,813 05:33 TC H 39 624
106 707 F COLIN GAELLE KIN&SPORT 00:32:28 00:32:28 10,719 05:36 TC F 16 618
107 688 FONTESSE GEOFFREY 00:32:36 00:32:36 10,675 05:37 TC H 40 616
108 1072 F DE PESTEL HÉLÈNE 00:32:43 00:32:37 10,669 05:37 TC F 17 615
109 233 F DE KEYZER AURELIE 00:32:44 00:32:44 10,631 05:39 TC F 18 613
110 632 GREGOIRE JEAN-PAUL 00:32:47 00:32:47 10,615 05:39 TC H 41 612
111 1120 F DUPUIS CLAUDINE KINESPORT 00:32:52 00:32:44 10,631 05:39 TC F 19 613
112 1165 F PAQUET LÉA A.R. JEAN REY SECONDAIRE 00:32:53 00:32:39 10,658 05:38 SCO F 6 615
113 683 F TABARY ANNE 00:32:54 00:32:38 10,664 05:38 TC F 20 615
114 1166 PAQUET OLIVIER JACO 00:32:55 00:32:41 10,648 05:38 TC H 42 614
115 609 F DRUART MARTINE 00:33:00 00:32:55 10,572 05:41 TC F 21 610
116 1002 F BERNAZANO ÉLODIE 00:33:01 00:32:54 10,578 05:40 TC F 22 610
117 1143 LAMBOT ROMAIN 00:33:03 00:33:03 10,529 05:42 TC H 43 607
118 716 HENRY PHILIPPE 00:33:07 00:32:50 10,599 05:40 TC H 44 611
119 228 THOMAS MICKAËL 00:33:08 00:32:55 10,572 05:41 TC H 45 610
120 608 F MOQUET ANAIS 00:33:15 00:33:09 10,498 05:43 TC F 23 605
121 601 F NICOLAS DEBORAH 00:33:16 00:33:16 10,461 05:44 TC F 24 603
122 654 F LESCEUX LISE 00:33:17 00:33:07 10,508 05:43 xF 3 606
123 600 NICOLAS DYLAN 00:33:17 00:33:00 10,545 05:41 TC H 46 608
124 1054 DAEMS ALAIN ROCROY SPORTS NATURE 00:33:19 00:33:12 10,482 05:43 TC H 47 604
125 631 BELLENGER FREDERIC 00:33:20 00:33:01 10,540 05:42 TC H 48 608
126 1139 F HUGYECZ LORA JACO 00:33:20 00:33:17 10,456 05:44 CAD F 9 603
127 655 F HANNECAUT NATHALIE 00:33:22 00:33:12 10,482 05:43 TC F 25 604
128 1025 F HASBANI SIBILLE JACO 00:33:30 00:33:28 10,398 05:46 CAD F 10 600
129 606 POCHET THIERRY 00:33:32 00:33:15 10,466 05:44 TC H 49 604
130 1180 THOMÉ BENOIT 00:33:33 00:33:17 10,456 05:44 TC H 50 603
131 624 F STREBEL EMILIE AR VAUBAN 00:33:35 00:33:22 10,430 05:45 SCO F 7 601
132 1151 MASSON ANDY A.R. JEAN REY SECONDAIRE 00:33:40 00:33:18 10,450 05:44 CAD H 18 603
133 640 F ILELIN CHLOE 00:33:43 00:33:26 10,409 05:46 CAD F 11 600
134 1094 COLOT CHRISTOPHE JTRR 00:33:46 00:33:28 10,398 05:46 TC H 51 600
135 693 LETELIER SEBASTIEN 00:33:46 00:33:28 10,398 05:46 TC H 52 600
136 684 MAURENNE RODIN 00:33:58 00:33:58 10,245 05:51 CAD H 19 591
137 1101 F DE SMET EMMA A.R. VAUBAN CHARLEROI 00:34:02 00:34:00 10,235 05:52 CAD F 12 590
138 1179 F SZCZYRBA MANON A.R. VAUBAN CHARLEROI 00:34:02 00:34:01 10,230 05:52 SCO F 8 590
139 181 F RAGUET VALÉRIE 00:34:05 00:33:55 10,260 05:51 TC F 26 592
140 1019 F SEPTON LUCIE JCPMF CHIMAY 00:34:05 00:33:57 10,250 05:51 TC F 27 591
141 1146 F LINCLAU EVELYNE 00:34:10 00:34:03 10,220 05:52 TC F 28 589
142 1096 CROWET VINCENT 00:34:10 00:34:03 10,220 05:52 TC H 53 589
143 1103 F DEBUS INGRID SHARKS 00:34:14 00:34:02 10,225 05:52 TC F 29 590
144 1093 COLLART ALEXIS A.R. JEAN REY SECONDAIRE 00:34:20 00:34:07 10,200 05:53 SCO H 13 588
145 1104 DEFAUW GEORGES 00:34:21 00:34:17 10,151 05:55 TC H 54 585
146 715 F CENATOR DALIA 00:34:23 00:34:20 10,136 05:55 CAD F 13 584
147 713 F MICHELER MARINE 00:34:23 00:34:20 10,136 05:55 xF 4 584
148 698 F BERTRAND PASCALINE 00:34:24 00:34:24 10,116 05:56 TC F 30 583
149 696 DONIN JEAN BAPTISTE 00:34:24 00:34:12 10,175 05:54 TC H 55 587
150 1049 RABATTE FREDERIC ALBATROS 00:34:25 00:34:25 10,111 05:56 TC H 56 583
151 626 F TOMSOM CYNTHIA AR VAUBAN 00:34:30 00:34:18 10,146 05:55 SCO F 9 585
152 1184 VEKEMANS JORDAN ESPF PETIGNY-FRASNES 00:34:31 00:34:14 10,166 05:54 TC H 57 586
153 1156 MOULIN LAURENCE KETTLEFIT 00:34:33 00:34:23 10,121 05:56 TC H 58 584
154 1014 HANNEVART LAURENT 00:34:39 00:34:23 10,121 05:56 TC H 59 584
155 1047 FOURNIER NICOLAS ALBATROS 00:34:39 00:34:39 10,043 05:58 TC H 60 579
156 602 F DERENNE ELOISE 00:34:41 00:34:38 10,048 05:58 CAD F 14 579
157 1044 DOUAI BERNARD ALBATROS 00:34:47 00:34:31 10,082 05:57 TC H 61 581
158 717 F COEVE ELODIE 00:34:52 00:34:39 10,043 05:58 TC F 31 579
159 1069 F MEURANT AURÉLIE TRAILERS DES FAGNES 00:34:57 00:34:41 10,034 05:59 TC F 32 579
160 1145 LERNOUT MATTHIAS JACO 00:34:57 00:34:54 9,971 06:01 xH 8 575
161 650 F TIMMERMANS JULIE 00:34:58 00:34:48 10,000 06:00 TC F 33 577
162 651 SIMON BENJAMIN ARJR 00:35:05 00:34:46 10,010 06:00 TC H 62 577
163 668 F BIROTTI ELEONORE 00:35:07 00:34:51 9,986 06:01 SCO F 10 576
164 666 NICOLAS PIERRE 00:35:07 00:34:51 9,986 06:01 SCO H 14 576
165 633 F MICLET CHRISTINE 00:35:09 00:35:04 9,924 06:03 TC F 34 572
166 1046 DUSMENIL ARNAUD ALBATROS 00:35:13 00:34:58 9,952 06:02 TC H 63 574
167 613 F CARLA CERINI 00:35:23 00:35:23 9,835 06:06 TC F 35 567
168 1108 F DEMEUSE CHRISTELLE 00:35:38 00:35:27 9,817 06:07 TC F 36 566
169 686 F VALTIN ISABELLE 00:35:40 00:35:17 9,863 06:05 TC F 37 569
170 628 MASSON JOACKIM 00:35:40 00:35:17 9,863 06:05 TC H 64 569
171 1037 F SABLON ISABELLE 00:35:45 00:35:37 9,771 06:08 TC F 38 563
172 1119 DUJARDIN JEAN 00:35:48 00:35:42 9,748 06:09 TC H 65 562
173 643 F CLABOTS AVRIL 00:36:00 00:35:51 9,707 06:11 CAD F 15 560
174 627 LERAT DONOVAN AR VAUBAN 00:36:09 00:36:06 9,640 06:13 CAD H 20 556
175 660 F DONNAY PASCALE 00:36:18 00:35:58 9,676 06:12 TC F 39 558
176 681 F DUBOIS SOPHIE JCPMF COUVIN 00:36:36 00:36:20 9,578 06:16 TC F 40 552
177 680 F BOURTEMBOURG EMMANUELLE JCPMF COUVIN 00:36:36 00:36:20 9,578 06:16 TC F 41 552
178 1084 F BLEQUIT CINDY 00:36:38 00:36:18 9,587 06:16 TC F 42 553
179 676 F HOUCKF NATHALIE 00:36:49 00:36:35 9,513 06:18 TC F 43 549
180 677 F SCORNIEL PAULINE 00:36:50 00:36:35 9,513 06:18 TC F 44 549
181 1022 F HASBANI KENZA JACO 00:36:51 00:36:49 9,452 06:21 SCO F 11 545
182 1009 F DULIEU STÉPHANIE LA THURE / CAP BEAURAING 00:36:59 00:36:39 9,495 06:19 TC F 45 548
183 1133 HARMANT BENJAMIN A.R. JEAN REY SECONDAIRE 00:37:06 00:37:06 9,380 06:24 SCO H 15 541
184 1189 WERRION NICOLAS A.R. JEAN REY SECONDAIRE 00:37:06 00:37:06 9,380 06:24 CAD H 21 541
185 1141 F JEANMART NATHALIE 00:37:10 00:36:59 9,410 06:23 TC F 46 543
186 1080 BASTIN IGNACE 00:37:10 00:36:58 9,414 06:22 TC H 66 543
187 620 LAFFINEUR CHRISTIAN LA THURE 00:37:19 00:37:01 9,401 06:23 TC H 67 542
188 1055 F LAHR MARIELLE JTRR 00:37:27 00:37:07 9,376 06:24 TC F 47 541
189 370 FONTESSE KYLLIAN A.R. JEAN REY SECONDAIRE 00:37:35 00:37:19 9,326 06:26 xH 9 538
190 1015 LAMBERT FABIEN 00:37:41 00:37:26 9,297 06:27 TC H 68 536
191 629 F SIMON AMANDINE 00:37:42 00:37:18 9,330 06:26 TC F 48 538
192 630 F LANGUILLIER GENEVIEVE 00:37:44 00:37:20 9,321 06:26 TC F 49 537
193 1100 F DE ALMEIDA KATHY 00:38:01 00:37:44 9,223 06:30 TC F 50 532
194 646 ROELAND BAPTISTE 00:38:07 00:37:45 9,219 06:31 TC H 69 532
195 1111 F DENIS GABRIELLE A.R. JEAN REY SECONDAIRE 00:38:17 00:38:06 9,134 06:34 SCO F 12 527
196 1016 F MAGAIN ELODIE 00:38:18 00:38:03 9,146 06:34 TC F 51 527
197 1021 F SIMON ESTELLE 00:38:19 00:38:04 9,142 06:34 TC F 52 527
198 1052 TEXEIRA JEROME ALBATROS 00:38:19 00:38:07 9,130 06:34 TC H 70 526
199 625 F JASSOGNE ISABELLE AR VAUBAN 00:38:31 00:38:08 9,126 06:34 TC F 53 526
200 107 F BOREL MELANIE HARCY (FRANCE) 00:38:36 00:38:31 9,035 06:38 TC F 54 521
201 1083 F BELLENGER LINDSAY JTRR 00:38:40 00:38:28 9,047 06:38 TC F 55 522
202 1048 LESAGE ADRIEN ALBATROS 00:38:40 00:38:28 9,047 06:38 TC H 71 522
203 718 F GUERI BERNADETTE 00:38:45 00:38:31 9,035 06:38 TC F 56 521
204 708 F BASTIEN EMILIE 00:38:45 00:38:34 9,023 06:39 TC F 57 520
205 672 F POULLAIN CHRISTINE JCPMF 00:39:15 00:39:15 8,866 06:46 TC F 58 511
206 674 F JANMART NATHALIE JCPMF 00:39:16 00:39:00 8,923 06:43 TC F 59 515
207 673 F JANNART CATY 00:39:21 00:39:04 8,908 06:44 TC F 60 514
208 1152 MATHIEU THIBAUT CABW PHILIPPEVILLE 00:39:25 00:39:25 8,829 06:48 SCO H 16 509
209 1005 F DE KEYSER VÉRONIQUE TDF 00:39:30 00:39:20 8,847 06:47 TC F 61 510
210 616 SALENDER ALEXIS 00:39:42 00:39:31 8,806 06:49 xH 10 508
211 603 DERENNE VALERY 00:39:46 00:39:42 8,766 06:51 TC H 72 505
212 1137 F HERBULOT KARINE 00:40:08 00:39:56 8,715 06:53 TC F 62 503
213 1182 VAN LOO MAXIME 00:40:21 00:40:15 8,646 06:56 xH 11 499
214 648 MORBEE ALAIN VIROSPORT 00:40:21 00:40:21 8,625 06:57 TC H 73 497
215 618 F GUIMIN LUCIE 00:40:26 00:40:06 8,678 06:55 SCO F 13 500
216 1020 F SIMON ANNE LISE 00:40:34 00:40:19 8,632 06:57 TC F 63 498
217 623 LIMOUSIN SEBASTIEN LA THURE 00:40:40 00:40:23 8,617 06:58 TC H 74 497
218 1130 F GAUME CHARLENE 00:40:41 00:40:24 8,614 06:58 SCO F 14 497
219 656 F GUILLAUME NIKITA 00:40:47 00:40:37 8,568 07:00 SCO F 15 494
220 671 F DEPUS DOMINIQUE JCPMF 00:40:53 00:40:37 8,568 07:00 TC F 64 494
221 1071 F GAUTHIER CÉLINE 00:41:06 00:40:58 8,495 07:04 TC F 65 490
222 1118 F DUCOEUR MATHILDE 00:41:07 00:40:49 8,526 07:02 TC F 66 492
223 1102 F DE-MAERE LINDA 00:41:11 00:41:11 8,450 07:06 TC F 67 487
224 1065 F ROUSSEAUX FLORENCE LA THURE 00:41:23 00:41:03 8,477 07:05 TC F 68 489
225 1109 F DEMEYER OCÉANE A.R. JEAN REY SECONDAIRE 00:41:28 00:41:11 8,450 07:06 SCO F 16 487
226 388 NART ETHAN 00:41:28 00:41:10 8,453 07:06 xH 12 487
227 1171 F RONCHIN SOPHIE 00:41:30 00:41:13 8,443 07:06 TC F 69 487
228 1092 F CHIVOT NANCY 00:41:35 00:41:16 8,433 07:07 TC F 70 486
229 1134 HEBERSTREIT JIM A.R. JEAN REY SECONDAIRE 00:41:47 00:41:44 8,339 07:12 CAD H 22 481
230 1185 VERMOORTEL JÉRÉMIE 00:42:09 00:41:50 8,319 07:13 TC H 75 480
231 1086 BOGA HASAN A.R. JEAN REY SECONDAIRE 00:42:14 00:42:12 8,246 07:17 SCO H 17 476
232 700 F ROCHETTE ELEA 00:42:17 00:42:01 8,282 07:15 TC F 71 478
233 1123 ENSAY VINCENT CABW PHILIPPEVILLE 00:42:59 00:42:47 8,134 07:23 TC H 76 469
234 1131 F GHEENENS NADINE 00:43:00 00:42:40 8,156 07:21 TC F 72 470
235 1058 FAYT PATRICIA JACO 00:43:00 00:42:39 8,159 07:21 TC H 77 470
236 1140 F JASSOGNE JÉMINA ENTREPARENTHÈSES 00:43:12 00:42:50 8,125 07:23 TC F 73 468
237 712 F GARCIA MEDINA 00:43:13 00:43:03 8,084 07:25 TC F 74 466
238 604 F VERMOORTEL CASSANDRE 00:43:14 00:42:56 8,106 07:24 xF 5 467
239 658 F LEJEUNE LIZA 00:43:14 00:42:56 8,106 07:24 xF 6 467
240 617 F FONDER CECILE 00:43:18 00:42:59 8,096 07:25 TC F 75 467
241 622 F FONDER ALINE 00:43:22 00:43:03 8,084 07:25 TC F 76 466
242 611 VANDERHEYDEN REMY 00:43:36 00:43:13 8,052 07:27 TC H 78 464
243 702 MUSTIN DIDIER 00:43:44 00:43:21 8,028 07:28 TC H 79 463
244 1132 F GOFFARD CHRISTIANE JCPMF 00:44:16 00:44:01 7,906 07:35 TC F 77 456
245 1174 F SERVAIS LUCIE TRAILERS DES FAGNES 00:44:16 00:44:16 7,861 07:38 TC F 78 453
246 689 F MEURANT CHRISTELLE 00:44:36 00:44:36 7,803 07:41 TC F 79 450
247 635 F ANDY MELISANDRE 00:45:09 00:44:59 7,736 07:45 SCO F 17 446
248 621 F WAUTERS LALIE 00:45:09 00:45:09 7,708 07:47 xF 7 444
249 615 F BODART LUANA 00:45:13 00:44:54 7,751 07:44 SCO F 18 447
250 614 F AUGUSTER LAURA 00:45:13 00:44:55 7,748 07:45 TC F 80 447
251 704 SODIN NACIR 00:45:13 00:44:54 7,751 07:44 SCO H 18 447
252 1106 F DELMELLE INGRID 00:45:19 00:45:01 7,730 07:46 TC F 81 446
253 1030 DARDENNE SÉBASTIEN 00:45:21 00:45:21 7,674 07:49 TC H 80 442
254 1188 VOOGD QUENTIN SHARKS TRIATHLON 00:45:38 00:45:25 7,662 07:50 TC H 81 442
255 664 VAN WISSEN MICHEL 00:45:38 00:45:15 7,691 07:48 TC H 82 443
256 665 KOCUREK PHILIPPE JACO 00:45:39 00:45:17 7,685 07:48 TC H 83 443
257 645 F HANNOY NADÈGE 00:46:40 00:46:19 7,513 07:59 TC F 82 433
258 644 F SLANINKA ANGELIQUE 00:46:51 00:46:30 7,484 08:01 TC F 83 432
259 1089 F CARPENT JESSICA A.R. JEAN REY SECONDAIRE 00:47:42 00:47:25 7,339 08:11 SCO F 19 423
260 612 F MARLIN HELENE 00:48:42 00:48:33 7,168 08:22 TC F 84 413
261 1135 HELMI YAD A.R. JEAN REY SECONDAIRE 00:49:15 00:49:13 7,071 08:29 SCO H 19 408
262 1173 F SEGERS CORALIE A.R. JEAN REY SECONDAIRE 00:49:49 00:49:29 7,033 08:32 SCO F 20 406
263 1051 SAUVAGE GUILLAUME ALBATROS 00:51:11 00:50:58 6,828 08:47 TC H 84 394
264 610 F PUVRARD CHRISTELLE 00:53:20 00:53:10 6,545 09:10 TC F 85 377